Time;durP1;ratioP1;P1;durP2;ratioP2;P2;SDS_P1;SDS_P2;PMS_P1;PMS_P2;Temp;Humidity;BMP_temperature;BMP_pressure;BME280_temperature;BME280_humidity;BME280_pressure;Samples;Min_cycle;Max_cycle;Signal;HPM_P1;HPM_P2
2022/05/27 00:00:45;;;;;;;2.63;0.40;;;;;;;;;;5038972;28;91615;-73
2022/05/27 00:03:12;;;;;;;0.00;0.00;;;;;;;;;;5038788;28;92672;-74
2022/05/27 00:05:41;;;;;;;0.00;0.00;;;;;;;;;;5038137;28;93096;-73
2022/05/27 00:08:08;;;;;;;0.00;0.00;;;;;;;;;;5036422;28;94862;-72
2022/05/27 00:10:34;;;;;;;0.00;0.00;;;;;;;;;;5041034;28;97086;-71
2022/05/27 00:13:01;;;;;;;0.22;0.22;;;;;;;;;;5038574;28;92339;-72
2022/05/27 00:15:27;;;;;;;0.00;0.00;;;;;;;;;;5038347;28;93435;-72
2022/05/27 00:17:53;;;;;;;0.13;0.13;;;;;;;;;;5038049;28;93239;-72
2022/05/27 00:20:21;;;;;;;1.65;0.52;;;;;;;;;;5037608;28;92274;-73
2022/05/27 00:22:47;;;;;;;0.00;0.00;;;;;;;;;;5038506;28;93876;-74
2022/05/27 00:25:13;;;;;;;0.10;0.10;;;;;;;;;;5037990;27;93430;-74
2022/05/27 00:27:40;;;;;;;0.00;0.00;;;;;;;;;;5038184;28;92346;-73
2022/05/27 00:30:08;;;;;;;0.00;0.00;;;;;;;;;;5038248;28;93449;-73
2022/05/27 00:32:36;;;;;;;0.03;0.03;;;;;;;;;;5039504;28;96033;-73
2022/05/27 00:35:03;;;;;;;0.00;0.00;;;;;;;;;;5037505;28;95740;-73
2022/05/27 00:37:29;;;;;;;0.00;0.00;;;;;;;;;;5037975;28;93801;-72
2022/05/27 00:39:56;;;;;;;1.73;1.38;;;;;;;;;;5019993;28;92349;-72
2022/05/27 00:42:22;;;;;;;0.00;0.00;;;;;;;;;;5037956;28;93237;-72
2022/05/27 00:44:49;;;;;;;0.00;0.00;;;;;;;;;;5038047;28;92653;-72
2022/05/27 00:47:16;;;;;;;0.00;0.00;;;;;;;;;;5038193;28;92146;-72
2022/05/27 00:49:45;;;;;;;0.00;0.00;;;;;;;;;;5038078;28;93617;-72
2022/05/27 00:52:13;;;;;;;0.00;0.00;;;;;;;;;;5037821;28;92875;-72
2022/05/27 00:54:40;;;;;;;0.00;0.00;;;;;;;;;;5040997;28;92374;-72
2022/05/27 00:57:09;;;;;;;0.00;0.00;;;;;;;;;;5036129;28;95856;-72
2022/05/27 00:59:41;;;;;;;0.00;0.00;;;;;;;;;;5037971;28;92362;-72
2022/05/27 01:02:08;;;;;;;0.00;0.00;;;;;;;;;;5037395;28;93829;-72
2022/05/27 01:04:35;;;;;;;0.00;0.00;;;;;;;;;;5037806;28;92997;-72
2022/05/27 01:07:01;;;;;;;0.13;0.13;;;;;;;;;;5037535;28;92149;-72
2022/05/27 01:09:29;;;;;;;0.00;0.00;;;;;;;;;;5037239;27;93311;-74
2022/05/27 01:11:55;;;;;;;0.10;0.10;;;;;;;;;;5040226;27;93678;-72
2022/05/27 01:14:34;;;;;;;0.00;0.00;;;;;;;;;;5037380;27;91648;-72
2022/05/27 01:17:06;;;;;;;0.00;0.00;;;;;;;;;;5040009;27;93270;-72
2022/05/27 01:22:39;;;;;;;0.00;0.00;;;;;;;;;;5035224;27;94811;-72
2022/05/27 01:25:06;;;;;;;0.00;0.00;;;;;;;;;;5036242;27;93957;-73
2022/05/27 01:27:36;;;;;;;0.00;0.00;;;;;;;;;;5037069;27;92439;-72
2022/05/27 01:30:20;;;;;;;0.00;0.00;;;;;;;;;;5036635;27;93523;-72
2022/05/27 01:32:58;;;;;;;0.00;0.00;;;;;;;;;;5036712;28;93680;-72
2022/05/27 01:35:24;;;;;;;0.00;0.00;;;;;;;;;;5035425;27;92426;-73
2022/05/27 01:38:17;;;;;;;0.00;0.00;;;;;;;;;;5036380;27;93376;-72
2022/05/27 01:40:54;;;;;;;0.00;0.00;;;;;;;;;;5005390;27;93898;-73
2022/05/27 01:43:23;;;;;;;0.00;0.00;;;;;;;;;;5000071;27;93469;-72
2022/05/27 01:46:04;;;;;;;0.00;0.00;;;;;;;;;;5032224;27;93347;-73
2022/05/27 01:48:39;;;;;;;0.00;0.00;;;;;;;;;;5034272;27;95469;-72
2022/05/27 01:51:19;;;;;;;0.00;0.00;;;;;;;;;;5038040;27;95987;-73
2022/05/27 01:54:00;;;;;;;0.00;0.00;;;;;;;;;;5035900;27;93640;-72
2022/05/27 01:56:30;;;;;;;0.00;0.00;;;;;;;;;;5014371;28;92385;-73
2022/05/27 01:58:59;;;;;;;0.00;0.00;;;;;;;;;;5031865;27;93502;-73
2022/05/27 02:01:28;;;;;;;0.00;0.00;;;;;;;;;;5039528;27;92424;-72
2022/05/27 02:04:14;;;;;;;0.00;0.00;;;;;;;;;;5036268;27;92424;-73
2022/05/27 02:06:50;;;;;;;0.00;0.00;;;;;;;;;;5035864;27;92944;-73
2022/05/27 02:09:19;;;;;;;0.00;0.00;;;;;;;;;;5021390;27;92395;-72
2022/05/27 02:11:48;;;;;;;0.00;0.00;;;;;;;;;;5036542;27;93001;-72
2022/05/27 02:14:18;;;;;;;0.38;0.38;;;;;;;;;;5034284;27;95475;-73
2022/05/27 02:16:47;;;;;;;0.00;0.00;;;;;;;;;;5036052;27;92451;-73
2022/05/27 02:19:20;;;;;;;0.00;0.00;;;;;;;;;;5038301;27;93259;-73
2022/05/27 02:21:55;;;;;;;0.00;0.00;;;;;;;;;;5036084;27;93010;-73
2022/05/27 02:24:24;;;;;;;0.00;0.00;;;;;;;;;;5039519;27;92332;-73
2022/05/27 02:26:54;;;;;;;0.10;0.10;;;;;;;;;;5035849;27;93722;-73
2022/05/27 02:29:25;;;;;;;0.00;0.00;;;;;;;;;;5039091;27;92272;-73
2022/05/27 02:31:53;;;;;;;0.00;0.00;;;;;;;;;;5036644;27;93297;-73
2022/05/27 02:37:26;;;;;;;0.00;0.00;;;;;;;;;;5035932;27;92274;-72
2022/05/27 02:39:53;;;;;;;0.00;0.00;;;;;;;;;;5034270;27;94736;-72
2022/05/27 02:42:32;;;;;;;0.15;0.15;;;;;;;;;;5035525;27;93834;-72
2022/05/27 02:45:10;;;;;;;0.00;0.00;;;;;;;;;;5036017;27;92862;-73
2022/05/27 02:47:40;;;;;;;0.00;0.00;;;;;;;;;;5040068;27;93453;-72
2022/05/27 02:50:16;;;;;;;0.00;0.00;;;;;;;;;;5039063;27;92535;-72
2022/05/27 02:52:52;;;;;;;0.00;0.00;;;;;;;;;;5039210;27;93526;-72
2022/05/27 02:55:37;;;;;;;0.00;0.00;;;;;;;;;;5038918;27;93852;-72
2022/05/27 02:58:03;;;;;;;0.00;0.00;;;;;;;;;;5039614;27;91526;-72
2022/05/27 03:00:31;;;;;;;0.00;0.00;;;;;;;;;;5039676;27;92567;-73
2022/05/27 03:03:00;;;;;;;0.40;0.40;;;;;;;;;;5038975;27;93606;-72
2022/05/27 03:05:30;;;;;;;0.00;0.00;;;;;;;;;;5037220;27;94785;-72
2022/05/27 03:08:03;;;;;;;0.00;0.00;;;;;;;;;;5038623;27;95649;-72
2022/05/27 03:10:50;;;;;;;0.00;0.00;;;;;;;;;;5042775;27;93593;-72
2022/05/27 03:13:27;;;;;;;0.00;0.00;;;;;;;;;;5038722;27;93175;-72
2022/05/27 03:15:53;;;;;;;0.03;0.03;;;;;;;;;;5038638;27;93437;-73
2022/05/27 03:18:35;;;;;;;0.00;0.00;;;;;;;;;;5020802;27;92628;-72
2022/05/27 03:21:20;;;;;;;0.00;0.00;;;;;;;;;;5040168;27;93385;-72
2022/05/27 03:24:05;;;;;;;0.00;0.00;;;;;;;;;;5020759;27;94157;-72
2022/05/27 03:26:42;;;;;;;0.00;0.00;;;;;;;;;;5038297;27;92406;-72
2022/05/27 03:29:27;;;;;;;0.00;0.00;;;;;;;;;;5039880;27;93812;-72
2022/05/27 03:31:55;;;;;;;0.00;0.00;;;;;;;;;;5036509;27;95505;-73
2022/05/27 03:34:31;;;;;;;0.00;0.00;;;;;;;;;;5041446;27;92362;-72
2022/05/27 03:37:02;;;;;;;0.00;0.00;;;;;;;;;;5038110;27;93567;-72
2022/05/27 03:39:36;;;;;;;0.00;0.00;;;;;;;;;;5022917;27;92355;-72
2022/05/27 03:42:04;;;;;;;0.00;0.00;;;;;;;;;;5037978;27;93273;-73
2022/05/27 03:44:31;;;;;;;0.00;0.00;;;;;;;;;;5038092;27;93255;-72
2022/05/27 03:46:58;;;;;;;0.00;0.00;;;;;;;;;;5038517;27;92319;-72
2022/05/27 03:49:25;;;;;;;0.00;0.00;;;;;;;;;;5041276;27;92637;-72
2022/05/27 03:52:09;;;;;;;0.00;0.00;;;;;;;;;;5038008;27;93867;-72
2022/05/27 03:54:37;;;;;;;0.25;0.25;;;;;;;;;;5037522;27;92319;-73
2022/05/27 03:57:04;;;;;;;0.00;0.00;;;;;;;;;;5039635;27;94781;-72
2022/05/27 03:59:30;;;;;;;0.00;0.00;;;;;;;;;;5040525;27;92827;-72
2022/05/27 04:01:57;;;;;;;0.00;0.00;;;;;;;;;;5038015;27;93692;-73
2022/05/27 04:04:26;;;;;;;0.00;0.00;;;;;;;;;;5038064;27;93792;-72
2022/05/27 04:06:52;;;;;;;0.00;0.00;;;;;;;;;;5037708;27;92306;-73
2022/05/27 04:09:19;;;;;;;0.00;0.00;;;;;;;;;;5040381;27;93315;-72
2022/05/27 04:11:46;;;;;;;0.00;0.00;;;;;;;;;;5038286;27;95398;-72
2022/05/27 04:14:13;;;;;;;0.00;0.00;;;;;;;;;;5039089;28;91503;-72
2022/05/27 04:16:39;;;;;;;0.00;0.00;;;;;;;;;;5023690;28;92342;-72
2022/05/27 04:19:06;;;;;;;0.00;0.00;;;;;;;;;;5038407;28;92259;-72
2022/05/27 04:21:33;;;;;;;0.00;0.00;;;;;;;;;;5018750;28;95786;-72
2022/05/27 04:23:59;;;;;;;0.00;0.00;;;;;;;;;;5037768;28;93780;-72
2022/05/27 04:26:26;;;;;;;0.00;0.00;;;;;;;;;;5020668;28;92274;-72
2022/05/27 04:28:52;;;;;;;0.00;0.00;;;;;;;;;;5038301;28;93469;-72
2022/05/27 04:31:19;;;;;;;0.00;0.00;;;;;;;;;;5037790;28;93574;-72
2022/05/27 04:33:45;;;;;;;0.00;0.00;;;;;;;;;;5038172;28;92442;-72
2022/05/27 04:36:13;;;;;;;0.00;0.00;;;;;;;;;;5038051;28;93409;-72
2022/05/27 04:38:39;;;;;;;0.00;0.00;;;;;;;;;;5041439;28;92890;-72
2022/05/27 04:41:06;;;;;;;0.00;0.00;;;;;;;;;;5038045;28;92660;-72
2022/05/27 04:43:33;;;;;;;0.00;0.00;;;;;;;;;;5037577;28;93575;-72
2022/05/27 04:46:01;;;;;;;0.08;0.08;;;;;;;;;;5036526;28;94524;-72
2022/05/27 04:48:27;;;;;;;0.03;0.03;;;;;;;;;;5037869;28;95911;-72
2022/05/27 04:50:54;;;;;;;0.00;0.00;;;;;;;;;;5037373;28;93093;-73
2022/05/27 04:53:20;;;;;;;0.00;0.00;;;;;;;;;;5037977;28;92502;-72
2022/05/27 04:55:47;;;;;;;0.47;0.47;;;;;;;;;;5037727;28;92804;-72
2022/05/27 04:58:13;;;;;;;0.00;0.00;;;;;;;;;;5037397;28;93110;-72
2022/05/27 05:00:41;;;;;;;0.00;0.00;;;;;;;;;;5040955;28;92362;-72
2022/05/27 05:03:08;;;;;;;0.10;0.10;;;;;;;;;;5038080;28;92949;-72
2022/05/27 05:05:35;;;;;;;0.00;0.00;;;;;;;;;;5037049;28;92244;-73
2022/05/27 05:08:03;;;;;;;0.00;0.00;;;;;;;;;;5037355;28;93354;-72
2022/05/27 05:10:30;;;;;;;0.00;0.00;;;;;;;;;;5035633;28;95959;-72
2022/05/27 05:12:56;;;;;;;0.00;0.00;;;;;;;;;;5037459;28;92200;-72
2022/05/27 05:15:24;;;;;;;0.00;0.00;;;;;;;;;;5037322;28;93413;-73
2022/05/27 05:17:50;;;;;;;0.00;0.00;;;;;;;;;;5037055;28;93912;-72
2022/05/27 05:20:18;;;;;;;0.00;0.00;;;;;;;;;;5037292;28;92298;-73
2022/05/27 05:22:44;;;;;;;0.00;0.00;;;;;;;;;;5040578;28;93305;-73
2022/05/27 05:25:11;;;;;;;0.03;0.03;;;;;;;;;;5037595;28;92151;-73
2022/05/27 05:27:39;;;;;;;0.05;0.05;;;;;;;;;;5037927;28;92556;-72
2022/05/27 05:30:06;;;;;;;0.00;0.00;;;;;;;;;;5036927;28;93681;-73
2022/05/27 05:32:33;;;;;;;0.20;0.20;;;;;;;;;;5037204;28;92308;-73
2022/05/27 05:34:59;;;;;;;0.32;0.32;;;;;;;;;;5035391;28;95034;-73
2022/05/27 05:37:27;;;;;;;0.00;0.00;;;;;;;;;;5037135;28;93408;-73
2022/05/27 05:39:53;;;;;;;0.00;0.00;;;;;;;;;;5037410;28;92321;-73
2022/05/27 05:42:19;;;;;;;0.00;0.00;;;;;;;;;;5037065;28;93436;-73
2022/05/27 05:44:46;;;;;;;0.10;0.10;;;;;;;;;;5040201;28;93571;-73
2022/05/27 05:47:12;;;;;;;0.10;0.10;;;;;;;;;;5036617;28;93382;-73
2022/05/27 05:49:38;;;;;;;0.08;0.08;;;;;;;;;;5019311;28;93730;-72
2022/05/27 05:52:05;;;;;;;0.10;0.10;;;;;;;;;;5019585;28;91632;-73
2022/05/27 05:54:31;;;;;;;0.20;0.20;;;;;;;;;;5019508;28;92382;-72
2022/05/27 05:57:02;;;;;;;0.10;0.10;;;;;;;;;;5033777;28;94041;-72
2022/05/27 05:59:30;;;;;;;0.00;0.00;;;;;;;;;;5035483;28;94747;-73
2022/05/27 06:01:57;;;;;;;0.00;0.00;;;;;;;;;;5036414;28;95868;-73
2022/05/27 06:04:23;;;;;;;0.00;0.00;;;;;;;;;;5036557;28;93661;-73
2022/05/27 06:06:50;;;;;;;0.00;0.00;;;;;;;;;;5039775;28;92357;-72
2022/05/27 06:09:18;;;;;;;0.00;0.00;;;;;;;;;;5036314;28;94055;-72
2022/05/27 06:11:45;;;;;;;0.00;0.00;;;;;;;;;;5037019;28;92302;-72
2022/05/27 06:14:11;;;;;;;0.10;0.10;;;;;;;;;;5036747;28;93796;-72
2022/05/27 06:16:38;;;;;;;0.00;0.00;;;;;;;;;;5036672;28;92962;-74
2022/05/27 06:19:04;;;;;;;0.00;0.00;;;;;;;;;;5036661;28;92208;-75
2022/05/27 06:21:30;;;;;;;0.00;0.00;;;;;;;;;;5036807;27;93734;-74
2022/05/27 06:23:57;;;;;;;0.00;0.00;;;;;;;;;;5038112;28;96032;-73
2022/05/27 06:26:23;;;;;;;0.00;0.00;;;;;;;;;;5043313;28;92305;-74
2022/05/27 06:34:26;;;;;;;0.43;0.43;;;;;;;;;;5039892;28;93280;-76
2022/05/27 06:36:57;;;;;;;0.00;0.00;;;;;;;;;;5039594;28;94520;-75
2022/05/27 06:39:24;;;;;;;1.00;0.90;;;;;;;;;;5039471;28;92419;-75
2022/05/27 06:41:51;;;;;;;0.10;0.10;;;;;;;;;;5040417;28;92743;-75
2022/05/27 06:44:18;;;;;;;0.00;0.00;;;;;;;;;;5021575;28;96306;-78
2022/05/27 06:46:44;;;;;;;0.00;0.00;;;;;;;;;;5039820;28;92361;-76
2022/05/27 06:49:12;;;;;;;0.00;0.00;;;;;;;;;;5041266;28;94658;-79
2022/05/27 06:51:39;;;;;;;0.30;0.30;;;;;;;;;;5039613;28;92261;-75
2022/05/27 06:54:06;;;;;;;0.10;0.10;;;;;;;;;;5039182;28;92963;-77
2022/05/27 06:56:37;;;;;;;0.10;0.10;;;;;;;;;;5039726;28;93578;-77
2022/05/27 06:59:04;;;;;;;0.00;0.00;;;;;;;;;;5039702;28;92357;-77
2022/05/27 07:01:30;;;;;;;2.65;1.23;;;;;;;;;;5039578;28;93322;-74
2022/05/27 07:03:57;;;;;;;0.00;0.00;;;;;;;;;;5039361;28;93357;-74
2022/05/27 07:06:28;;;;;;;0.10;0.10;;;;;;;;;;5039255;28;91501;-76
2022/05/27 07:08:55;;;;;;;0.43;0.43;;;;;;;;;;5039409;28;92563;-77
2022/05/27 07:11:21;;;;;;;0.10;0.10;;;;;;;;;;5024637;28;92698;-76
2022/05/27 07:13:47;;;;;;;0.05;0.05;;;;;;;;;;5037920;28;94773;-76
2022/05/27 07:16:14;;;;;;;0.85;0.40;;;;;;;;;;5039261;28;93765;-75
2022/05/27 07:18:40;;;;;;;0.00;0.00;;;;;;;;;;5039152;28;92372;-77
2022/05/27 07:21:07;;;;;;;0.10;0.10;;;;;;;;;;5038761;28;92881;-75
2022/05/27 07:23:33;;;;;;;0.10;0.10;;;;;;;;;;5021179;28;93365;-75
2022/05/27 07:26:00;;;;;;;0.65;0.65;;;;;;;;;;5039182;28;92361;-74
2022/05/27 07:28:26;;;;;;;0.00;0.00;;;;;;;;;;5039426;28;94014;-76
2022/05/27 07:30:53;;;;;;;0.20;0.20;;;;;;;;;;5039331;28;93400;-76
2022/05/27 07:33:20;;;;;;;0.10;0.10;;;;;;;;;;5023336;28;92453;-75
2022/05/27 07:35:47;;;;;;;0.00;0.00;;;;;;;;;;5042018;27;92816;-75
2022/05/27 07:38:14;;;;;;;0.00;0.00;;;;;;;;;;5057808;27;94555;-75
2022/05/27 07:40:40;;;;;;;0.30;0.30;;;;;;;;;;5059280;27;95781;-75
2022/05/27 07:43:08;;;;;;;0.00;0.00;;;;;;;;;;5055780;27;94018;-77
2022/05/27 07:45:39;;;;;;;0.20;0.20;;;;;;;;;;5039244;27;93488;-76
2022/05/27 07:48:05;;;;;;;0.10;0.10;;;;;;;;;;5038378;27;93450;-78
2022/05/27 07:50:32;;;;;;;0.10;0.10;;;;;;;;;;5035001;27;94163;-76
2022/05/27 07:52:58;;;;;;;0.10;0.10;;;;;;;;;;5038524;27;92328;-78
2022/05/27 07:55:24;;;;;;;0.10;0.10;;;;;;;;;;5041614;27;93261;-77
2022/05/27 07:57:52;;;;;;;0.30;0.30;;;;;;;;;;5038249;27;93332;-77
2022/05/27 08:00:20;;;;;;;0.00;0.00;;;;;;;;;;5037741;27;93434;-76
2022/05/27 08:02:47;;;;;;;0.00;0.00;;;;;;;;;;5032962;27;95777;-77
2022/05/27 08:05:15;;;;;;;0.10;0.10;;;;;;;;;;5020022;27;92441;-77
2022/05/27 08:07:41;;;;;;;0.00;0.00;;;;;;;;;;5019944;28;93677;-77
2022/05/27 08:10:30;;;;;;;0.08;0.08;;;;;;;;;;5037829;27;93548;-77
2022/05/27 08:13:06;;;;;;;0.05;0.05;;;;;;;;;;5019124;27;92471;-76
2022/05/27 08:15:32;;;;;;;0.20;0.20;;;;;;;;;;5040709;27;94243;-73
2022/05/27 08:17:59;;;;;;;0.00;0.00;;;;;;;;;;5037873;27;92985;-74
2022/05/27 08:20:27;;;;;;;0.15;0.15;;;;;;;;;;5039786;27;93204;-77
2022/05/27 08:22:54;;;;;;;0.30;0.30;;;;;;;;;;5038776;27;93644;-73
2022/05/27 08:25:21;;;;;;;0.30;0.30;;;;;;;;;;5020078;27;93337;-74
2022/05/27 08:27:47;;;;;;;0.20;0.20;;;;;;;;;;5017773;28;95627;-73
2022/05/27 08:30:16;;;;;;;0.20;0.20;;;;;;;;;;5037173;27;95029;-73
2022/05/27 08:32:42;;;;;;;0.10;0.10;;;;;;;;;;5039067;27;92814;-74
2022/05/27 08:38:03;;;;;;;0.25;0.25;;;;;;;;;;5040384;27;93581;-72
2022/05/27 08:40:42;;;;;;;0.10;0.10;;;;;;;;;;5037132;27;93533;-73
2022/05/27 08:43:08;;;;;;;0.30;0.30;;;;;;;;;;5039094;27;94001;-74
2022/05/27 08:45:44;;;;;;;0.10;0.10;;;;;;;;;;5037508;27;91605;-72
2022/05/27 08:48:11;;;;;;;0.00;0.00;;;;;;;;;;5037482;27;92543;-72
2022/05/27 08:50:46;;;;;;;0.30;0.30;;;;;;;;;;5036897;27;94022;-72
2022/05/27 08:53:31;;;;;;;0.85;0.85;;;;;;;;;;5038064;27;94864;-71
2022/05/27 08:59:28;;;;;;;0.10;0.10;;;;;;;;;;5037080;27;93364;-76
2022/05/27 09:01:57;;;;;;;0.00;0.00;;;;;;;;;;5022209;27;92461;-76
2022/05/27 09:04:42;;;;;;;0.00;0.00;;;;;;;;;;5037105;27;92833;-77
2022/05/27 09:07:08;;;;;;;0.10;0.10;;;;;;;;;;5036614;27;93173;-76
2022/05/27 09:09:35;;;;;;;0.10;0.10;;;;;;;;;;5036737;27;93426;-74
2022/05/27 09:12:20;;;;;;;0.30;0.30;;;;;;;;;;5037504;27;92356;-76
2022/05/27 09:15:00;;;;;;;1.17;1.15;;;;;;;;;;5037095;27;92350;-73
2022/05/27 09:17:42;;;;;;;0.70;0.70;;;;;;;;;;5019060;28;93691;-72
2022/05/27 09:20:08;;;;;;;;;;;;;;;;;;5034672;27;96937;-73
2022/05/27 09:22:53;;;;;;;0.08;0.08;;;;;;;;;;5035583;27;119335;-73
2022/05/27 09:25:38;;;;;;;0.10;0.10;;;;;;;;;;5039547;27;92419;-73
2022/05/27 09:28:09;;;;;;;0.10;0.10;;;;;;;;;;5036724;27;92463;-73
2022/05/27 09:30:36;;;;;;;0.00;0.00;;;;;;;;;;5035822;27;95104;-73
2022/05/27 09:33:04;;;;;;;0.10;0.10;;;;;;;;;;5040188;27;93585;-73
2022/05/27 09:35:32;;;;;;;0.10;0.10;;;;;;;;;;5036745;27;92382;-74
2022/05/27 09:38:10;;;;;;;1.20;1.10;;;;;;;;;;5037126;27;93655;-74
2022/05/27 09:41:08;;;;;;;0.10;0.10;;;;;;;;;;5036489;27;93684;-75
2022/05/27 09:43:48;;;;;;;0.00;0.00;;;;;;;;;;4988542;27;92542;-79
2022/05/27 09:46:17;;;;;;;0.20;0.20;;;;;;;;;;5035116;27;94693;-74
2022/05/27 09:48:44;;;;;;;2.00;0.57;;;;;;;;;;5039509;27;93473;-77
2022/05/27 09:51:12;;;;;;;0.17;0.17;;;;;;;;;;5036639;27;93179;-76
2022/05/27 09:53:40;;;;;;;0.13;0.13;;;;;;;;;;5036505;27;93577;-75
2022/05/27 09:56:18;;;;;;;0.10;0.10;;;;;;;;;;5036139;27;92367;-77
2022/05/27 09:59:03;;;;;;;0.00;0.00;;;;;;;;;;5000559;28;92947;-77
2022/05/27 10:01:38;;;;;;;0.10;0.10;;;;;;;;;;5010166;27;94342;-79
2022/05/27 10:04:06;;;;;;;0.52;0.52;;;;;;;;;;5041320;27;91625;-77
2022/05/27 10:06:34;;;;;;;1.85;0.93;;;;;;;;;;5043155;27;93061;-78
2022/05/27 10:09:03;;;;;;;0.50;0.50;;;;;;;;;;5041630;27;93713;-77
2022/05/27 10:11:31;;;;;;;0.45;0.38;;;;;;;;;;5041366;27;95200;-76
2022/05/27 10:14:12;;;;;;;0.30;0.30;;;;;;;;;;5040829;27;93197;-81
2022/05/27 10:16:42;;;;;;;0.20;0.20;;;;;;;;;;5039702;27;92228;-75
2022/05/27 10:19:10;;;;;;;0.20;0.20;;;;;;;;;;5039930;27;92850;-76
2022/05/27 10:21:48;;;;;;;0.15;0.15;;;;;;;;;;5048307;27;93518;-71
2022/05/27 10:24:22;;;;;;;0.10;0.10;;;;;;;;;;5042358;27;92978;-75
2022/05/27 10:27:00;;;;;;;0.10;0.10;;;;;;;;;;5040174;27;94687;-78
2022/05/27 10:29:28;;;;;;;0.00;0.00;;;;;;;;;;5022709;27;92547;-75
2022/05/27 10:31:55;;;;;;;0.00;0.00;;;;;;;;;;5042124;27;92312;-74
2022/05/27 10:34:39;;;;;;;0.00;0.00;;;;;;;;;;5039058;27;93535;-75
2022/05/27 10:37:10;;;;;;;0.45;0.45;;;;;;;;;;5037492;27;95151;-72
2022/05/27 10:39:44;;;;;;;0.20;0.20;;;;;;;;;;5039146;27;95972;-74
2022/05/27 10:42:19;;;;;;;0.20;0.20;;;;;;;;;;5040990;27;93085;-75
2022/05/27 10:45:02;;;;;;;0.00;0.00;;;;;;;;;;5039429;27;92278;-73
2022/05/27 10:47:38;;;;;;;0.00;0.00;;;;;;;;;;5039190;27;93400;-72
2022/05/27 10:50:13;;;;;;;0.10;0.10;;;;;;;;;;5021137;28;94323;-78
2022/05/27 10:52:57;;;;;;;0.00;0.00;;;;;;;;;;5043085;27;92419;-75
2022/05/27 10:55:30;;;;;;;0.10;0.10;;;;;;;;;;5042341;27;92885;-73
2022/05/27 11:04:29;;;;;;;0.13;0.13;;;;;;;;;;4974118;28;95086;-74
2022/05/27 11:07:01;;;;;;;0.00;0.00;;;;;;;;;;5048394;27;92502;-72
2022/05/27 11:09:35;;;;;;;0.00;0.00;;;;;;;;;;5038751;27;93815;-78
2022/05/27 11:12:18;;;;;;;0.00;0.00;;;;;;;;;;5038680;27;92152;-77
2022/05/27 11:15:12;;;;;;;0.10;0.10;;;;;;;;;;5038739;27;92374;-76
2022/05/27 11:17:51;;;;;;;0.10;0.10;;;;;;;;;;5020854;27;92878;-77
2022/05/27 11:20:28;;;;;;;0.10;0.10;;;;;;;;;;5041410;27;92938;-76
2022/05/27 11:23:14;;;;;;;0.10;0.10;;;;;;;;;;5020975;28;94302;-74
2022/05/27 11:26:05;;;;;;;0.10;0.10;;;;;;;;;;5020585;27;95207;-75
2022/05/27 11:28:45;;;;;;;0.10;0.10;;;;;;;;;;5038405;27;93637;-77
2022/05/27 11:31:20;;;;;;;0.10;0.10;;;;;;;;;;5037136;27;94577;-79
2022/05/27 11:33:56;;;;;;;0.00;0.00;;;;;;;;;;5038333;27;93934;-79
2022/05/27 11:36:22;;;;;;;0.47;0.47;;;;;;;;;;5038416;27;92426;-77
2022/05/27 11:39:06;;;;;;;0.10;0.10;;;;;;;;;;5038656;27;92942;-76
2022/05/27 11:41:38;;;;;;;0.10;0.10;;;;;;;;;;5038574;27;93480;-78
2022/05/27 11:44:23;;;;;;;0.30;0.30;;;;;;;;;;5041154;27;92485;-80
2022/05/27 11:46:50;;;;;;;0.20;0.20;;;;;;;;;;5038574;27;94208;-78
2022/05/27 11:49:55;;;;;;;7.53;2.75;;;;;;;;;;5039433;27;91633;-78
2022/05/27 11:52:25;;;;;;;0.00;0.00;;;;;;;;;;4974870;28;92615;-78
2022/05/27 11:54:51;;;;;;;0.10;0.10;;;;;;;;;;4959497;28;93665;-77
2022/05/27 11:57:40;;;;;;;0.98;0.85;;;;;;;;;;5005139;27;94777;-79
2022/05/27 12:00:13;;;;;;;0.10;0.10;;;;;;;;;;5020255;28;96692;-80
2022/05/27 12:02:45;;;;;;;0.13;0.13;;;;;;;;;;5038080;27;92924;-79
2022/05/27 12:05:15;;;;;;;0.00;0.00;;;;;;;;;;5022520;27;92337;-78
2022/05/27 12:07:48;;;;;;;0.10;0.10;;;;;;;;;;5040864;27;92851;-78
2022/05/27 12:10:17;;;;;;;0.00;0.00;;;;;;;;;;5038179;27;93644;-78
2022/05/27 12:12:47;;;;;;;0.00;0.00;;;;;;;;;;5037742;27;93785;-78
2022/05/27 12:15:19;;;;;;;0.10;0.10;;;;;;;;;;5040259;27;92989;-78
2022/05/27 12:17:49;;;;;;;0.08;0.08;;;;;;;;;;5037754;27;92181;-77
2022/05/27 12:20:23;;;;;;;0.10;0.10;;;;;;;;;;5037218;27;92717;-76
2022/05/27 12:22:52;;;;;;;0.00;0.00;;;;;;;;;;5035855;27;95693;-78
2022/05/27 12:25:28;;;;;;;0.65;0.65;;;;;;;;;;5040522;27;92213;-79
2022/05/27 12:27:59;;;;;;;0.00;0.00;;;;;;;;;;5019803;27;92925;-75
2022/05/27 12:30:29;;;;;;;0.10;0.10;;;;;;;;;;5040577;27;93925;-76
2022/05/27 12:32:56;;;;;;;3.85;0.35;;;;;;;;;;5037445;28;93330;-75
2022/05/27 12:35:42;;;;;;;0.00;0.00;;;;;;;;;;5037449;27;93125;-77
2022/05/27 12:38:12;;;;;;;0.20;0.20;;;;;;;;;;5037060;27;92399;-77
2022/05/27 12:40:45;;;;;;;0.10;0.10;;;;;;;;;;5038006;27;93033;-77
2022/05/27 12:43:17;;;;;;;0.10;0.10;;;;;;;;;;5036975;27;94660;-77
2022/05/27 12:45:48;;;;;;;0.10;0.10;;;;;;;;;;5040884;27;93584;-77
2022/05/27 12:48:26;;;;;;;0.10;0.10;;;;;;;;;;5035991;27;95726;-76
2022/05/27 12:50:54;;;;;;;0.10;0.10;;;;;;;;;;5039931;27;93459;-76
2022/05/27 12:53:33;;;;;;;0.22;0.22;;;;;;;;;;5037298;27;93325;-76
2022/05/27 13:02:14;;;;;;;0.17;0.17;;;;;;;;;;5036982;27;93740;-79
2022/05/27 13:04:47;;;;;;;0.30;0.30;;;;;;;;;;5036737;27;92913;-79
2022/05/27 13:07:14;;;;;;;0.20;0.20;;;;;;;;;;5036952;27;91671;-78
2022/05/27 13:09:46;;;;;;;0.20;0.20;;;;;;;;;;5018787;27;94778;-79
2022/05/27 13:12:32;;;;;;;0.00;0.00;;;;;;;;;;5036937;27;93253;-79
2022/05/27 13:15:08;;;;;;;0.65;0.65;;;;;;;;;;5038067;27;94762;-77
2022/05/27 13:17:36;;;;;;;0.00;0.00;;;;;;;;;;5037024;27;93084;-80
2022/05/27 13:20:17;;;;;;;0.00;0.00;;;;;;;;;;5036441;27;92279;-77
2022/05/27 13:22:59;;;;;;;0.10;0.10;;;;;;;;;;5036887;27;93208;-78
2022/05/27 13:25:29;;;;;;;0.00;0.00;;;;;;;;;;5036829;27;93228;-77
2022/05/27 13:27:57;;;;;;;0.00;0.00;;;;;;;;;;5036964;27;92349;-77
2022/05/27 13:30:25;;;;;;;0.10;0.10;;;;;;;;;;5036403;27;93303;-78
2022/05/27 13:33:05;;;;;;;0.00;0.00;;;;;;;;;;5036756;27;93126;-76
2022/05/27 13:35:46;;;;;;;0.00;0.00;;;;;;;;;;5018416;28;92365;-78
2022/05/27 13:38:15;;;;;;;0.10;0.10;;;;;;;;;;5039863;27;93336;-78
2022/05/27 13:40:42;;;;;;;0.10;0.10;;;;;;;;;;5035252;27;94784;-79
2022/05/27 13:43:14;;;;;;;0.10;0.10;;;;;;;;;;5036366;27;95021;-78
2022/05/27 13:45:47;;;;;;;0.10;0.10;;;;;;;;;;5036997;27;93587;-77
2022/05/27 13:48:40;;;;;;;0.20;0.20;;;;;;;;;;5036497;27;92205;-76
2022/05/27 13:51:10;;;;;;;0.10;0.10;;;;;;;;;;5031636;27;93471;-78
2022/05/27 13:53:40;;;;;;;;;;;;;;;;;;5036967;27;93219;-77
2022/05/27 13:56:07;;;;;;;0.00;0.00;;;;;;;;;;5035108;27;118494;-78
2022/05/27 13:58:35;;;;;;;0.77;0.77;;;;;;;;;;5037345;27;91646;-77
2022/05/27 14:01:05;;;;;;;0.30;0.30;;;;;;;;;;5021521;27;94561;-77
2022/05/27 14:03:44;;;;;;;0.85;0.85;;;;;;;;;;5035980;27;94680;-75
2022/05/27 14:06:12;;;;;;;0.00;0.00;;;;;;;;;;5036702;27;95951;-76
2022/05/27 14:08:40;;;;;;;0.10;0.10;;;;;;;;;;5036323;27;92387;-76
2022/05/27 14:11:16;;;;;;;1.80;0.22;;;;;;;;;;5018525;27;92245;-77
2022/05/27 14:13:48;;;;;;;0.00;0.00;;;;;;;;;;5036132;27;93582;-77
2022/05/27 14:16:22;;;;;;;0.00;0.00;;;;;;;;;;5038109;27;92387;-78
2022/05/27 14:18:54;;;;;;;0.00;0.00;;;;;;;;;;5037916;27;92783;-75
2022/05/27 14:24:17;;;;;;;0.00;0.00;;;;;;;;;;5039742;27;91599;-79
2022/05/27 14:26:44;;;;;;;0.05;0.05;;;;;;;;;;5038425;27;93311;-79
2022/05/27 14:29:13;;;;;;;0.20;0.20;;;;;;;;;;5036256;27;92639;-78
2022/05/27 14:31:59;;;;;;;0.22;0.22;;;;;;;;;;5034347;27;94793;-79
2022/05/27 14:34:28;;;;;;;0.20;0.20;;;;;;;;;;5035579;27;93085;-78
2022/05/27 14:37:02;;;;;;;0.10;0.10;;;;;;;;;;5021496;28;92378;-78
2022/05/27 14:39:32;;;;;;;0.65;0.30;;;;;;;;;;5018734;28;93608;-78
2022/05/27 14:42:00;;;;;;;0.10;0.10;;;;;;;;;;5018415;27;95896;-78
2022/05/27 14:44:28;;;;;;;5.00;1.00;;;;;;;;;;5038006;27;92686;-78
2022/05/27 14:47:03;;;;;;;0.10;0.10;;;;;;;;;;5025380;27;92591;-77
2022/05/27 14:49:39;;;;;;;0.10;0.10;;;;;;;;;;5039723;27;91523;-78
2022/05/27 14:52:32;;;;;;;0.00;0.00;;;;;;;;;;5000961;28;93428;-76
2022/05/27 14:55:05;;;;;;;0.00;0.00;;;;;;;;;;5034165;27;93166;-76
2022/05/27 14:57:42;;;;;;;1.42;1.35;;;;;;;;;;5037612;27;94688;-76
2022/05/27 15:00:09;;;;;;;0.00;0.00;;;;;;;;;;5038481;27;96690;-75
2022/05/27 15:02:38;;;;;;;0.00;0.00;;;;;;;;;;5038997;27;93661;-74
2022/05/27 15:05:10;;;;;;;0.10;0.10;;;;;;;;;;5039514;27;93097;-76
2022/05/27 15:07:39;;;;;;;0.00;0.00;;;;;;;;;;5041326;27;93297;-73
2022/05/27 15:10:06;;;;;;;0.00;0.00;;;;;;;;;;5021316;28;92272;-74
2022/05/27 15:12:33;;;;;;;0.00;0.00;;;;;;;;;;5038703;27;93280;-77
2022/05/27 15:15:00;;;;;;;0.00;0.00;;;;;;;;;;5043469;27;93618;-74
2022/05/27 15:17:28;;;;;;;0.10;0.10;;;;;;;;;;5038809;27;92654;-74
2022/05/27 15:19:57;;;;;;;0.90;0.90;;;;;;;;;;5038141;27;94320;-74
2022/05/27 15:22:24;;;;;;;0.00;0.00;;;;;;;;;;5036790;27;96086;-74
2022/05/27 15:24:54;;;;;;;0.08;0.08;;;;;;;;;;5039428;27;92398;-73
2022/05/27 15:33:09;;;;;;;0.08;0.08;;;;;;;;;;5038490;27;93196;-74
2022/05/27 15:35:44;;;;;;;0.00;0.00;;;;;;;;;;5038887;27;93415;-75
2022/05/27 15:38:11;;;;;;;;;;;;;;;;;;5038937;27;92288;-75
2022/05/27 15:40:40;;;;;;;0.00;0.00;;;;;;;;;;5038195;27;123051;-74
2022/05/27 15:43:17;;;;;;;0.00;0.00;;;;;;;;;;5037708;27;94993;-74
2022/05/27 15:45:44;;;;;;;0.00;0.00;;;;;;;;;;5040112;27;92399;-75